Pagrindinis puslapis
METAR-TAF:

METAR-TAF

Oro uostai :

Hemavan, Švedija

platuma: 65-48-22N, ilguma: 015-04-58E, Aukštis: 458 m

Dabartinis oras

Ataskaita buvo paskelbta 36 minutes, ne 10:50 UTC
Vėjas 3 kt iš Pietų
Temperatūra 11°C
Drėgmė 71%
Slėgis 1017 hPa
Matomumas 10 km arba daugiau

METAR: ESUT 221050Z AUTO 18003KT 9999 SCT035/// OVC046/// 11/06 Q1017

Laikas: 13:26 (11:26 UTC)


TAF: trūkstamas

Orai ataskaitas ir orų prognozės (METAR, TAF).

turimą stotys yra geltonos ir raudonos taškus žemėlapyje.

Perkelti pele per norėdami pamatyti stoties vardą.

Tada spustelėkite, norėdami matyti oro stebėjimo ir prognozės.

Norėdami pakeisti žemėlapį: spustelėkite ant žalios mygtukų su juodo kryžiaus žemyn,; žalią mygtuką su brūkšneliu, jei norite nutolinti; arba žalių rodyklių gretimoms žemėlapius.


METAR-TAF: